sensor_id;sensor_type;location;lat;lon;timestamp;pressure;altitude;pressure_sealevel;temperature;humidity
76260;BME280;65076;52.362;6.588;2023-05-24T00:01:21;102418.38;;;10.59;66.56
76260;BME280;65076;52.362;6.588;2023-05-24T00:03:52;102410.53;;;10.47;67.02
76260;BME280;65076;52.362;6.588;2023-05-24T00:06:25;102408.78;;;10.45;67.80
76260;BME280;65076;52.362;6.588;2023-05-24T00:08:53;102401.22;;;10.60;66.22
76260;BME280;65076;52.362;6.588;2023-05-24T00:11:23;102408.53;;;10.57;67.12
76260;BME280;65076;52.362;6.588;2023-05-24T00:13:53;102404.09;;;10.90;66.15
76260;BME280;65076;52.362;6.588;2023-05-24T00:16:21;102401.91;;;10.69;66.74
76260;BME280;65076;52.362;6.588;2023-05-24T00:18:49;102395.41;;;10.77;67.18
76260;BME280;65076;52.362;6.588;2023-05-24T00:21:18;102394.06;;;10.18;69.19
76260;BME280;65076;52.362;6.588;2023-05-24T00:23:47;102398.09;;;10.40;68.36
76260;BME280;65076;52.362;6.588;2023-05-24T00:26:17;102399.69;;;10.06;70.74
76260;BME280;65076;52.362;6.588;2023-05-24T00:28:46;102394.09;;;10.56;67.97
76260;BME280;65076;52.362;6.588;2023-05-24T00:31:14;102391.09;;;10.69;66.96
76260;BME280;65076;52.362;6.588;2023-05-24T00:33:42;102390.13;;;10.71;66.90
76260;BME280;65076;52.362;6.588;2023-05-24T00:36:10;102397.06;;;10.83;66.34
76260;BME280;65076;52.362;6.588;2023-05-24T00:38:39;102386.94;;;10.91;66.44
76260;BME280;65076;52.362;6.588;2023-05-24T00:41:06;102388.50;;;10.99;66.04
76260;BME280;65076;52.362;6.588;2023-05-24T00:43:34;102386.41;;;10.77;66.77
76260;BME280;65076;52.362;6.588;2023-05-24T00:46:15;102383.34;;;10.90;66.27
76260;BME280;65076;52.362;6.588;2023-05-24T00:48:49;102379.69;;;10.56;67.73
76260;BME280;65076;52.362;6.588;2023-05-24T00:51:18;102382.97;;;10.30;68.85
76260;BME280;65076;52.362;6.588;2023-05-24T00:53:47;102386.81;;;10.58;67.94
76260;BME280;65076;52.362;6.588;2023-05-24T00:56:16;102381.78;;;10.80;67.24
76260;BME280;65076;52.362;6.588;2023-05-24T00:58:45;102381.59;;;10.88;66.42
76260;BME280;65076;52.362;6.588;2023-05-24T01:01:15;102379.16;;;10.77;66.86
76260;BME280;65076;52.362;6.588;2023-05-24T01:03:43;102384.34;;;10.49;68.61
76260;BME280;65076;52.362;6.588;2023-05-24T01:06:12;102385.59;;;10.33;69.41
76260;BME280;65076;52.362;6.588;2023-05-24T01:09:01;102386.94;;;10.12;69.65
76260;BME280;65076;52.362;6.588;2023-05-24T01:11:44;102385.97;;;10.56;68.40
76260;BME280;65076;52.362;6.588;2023-05-24T01:14:26;102388.19;;;10.38;68.36
76260;BME280;65076;52.362;6.588;2023-05-24T01:17:08;102387.03;;;10.08;69.81
76260;BME280;65076;52.362;6.588;2023-05-24T01:19:51;102390.94;;;9.49;73.26
76260;BME280;65076;52.362;6.588;2023-05-24T01:22:42;102392.38;;;9.68;73.06
76260;BME280;65076;52.362;6.588;2023-05-24T01:25:38;102381.88;;;10.39;70.03
76260;BME280;65076;52.362;6.588;2023-05-24T01:28:15;102388.81;;;10.52;69.41
76260;BME280;65076;52.362;6.588;2023-05-24T01:30:45;102391.41;;;10.55;68.99
76260;BME280;65076;52.362;6.588;2023-05-24T01:33:14;102379.41;;;10.67;69.04
76260;BME280;65076;52.362;6.588;2023-05-24T01:35:42;102382.16;;;10.65;69.63
76260;BME280;65076;52.362;6.588;2023-05-24T01:38:10;102380.50;;;10.58;69.07
76260;BME280;65076;52.362;6.588;2023-05-24T01:40:39;102383.03;;;10.67;68.94
76260;BME280;65076;52.362;6.588;2023-05-24T01:43:15;102373.41;;;10.52;68.48
76260;BME280;65076;52.362;6.588;2023-05-24T01:45:55;102379.13;;;10.40;70.05
76260;BME280;65076;52.362;6.588;2023-05-24T01:48:37;102372.31;;;10.23;71.01
76260;BME280;65076;52.362;6.588;2023-05-24T01:51:22;102372.63;;;10.86;68.33
76260;BME280;65076;52.362;6.588;2023-05-24T01:53:56;102376.59;;;10.33;69.69
76260;BME280;65076;52.362;6.588;2023-05-24T01:56:26;102372.13;;;9.44;73.46
76260;BME280;65076;52.362;6.588;2023-05-24T01:58:59;102378.59;;;10.25;72.06
76260;BME280;65076;52.362;6.588;2023-05-24T02:01:30;102366.81;;;10.66;69.41
76260;BME280;65076;52.362;6.588;2023-05-24T02:03:58;102374.94;;;10.66;69.96
76260;BME280;65076;52.362;6.588;2023-05-24T02:06:26;102375.47;;;10.80;68.63
76260;BME280;65076;52.362;6.588;2023-05-24T02:08:54;102362.38;;;9.80;72.37
76260;BME280;65076;52.362;6.588;2023-05-24T02:11:22;102355.97;;;9.84;73.64
76260;BME280;65076;52.362;6.588;2023-05-24T02:13:50;102353.00;;;9.55;73.81
76260;BME280;65076;52.362;6.588;2023-05-24T02:16:22;102357.69;;;9.47;74.97
76260;BME280;65076;52.362;6.588;2023-05-24T02:18:52;102354.91;;;9.50;74.21
76260;BME280;65076;52.362;6.588;2023-05-24T02:21:20;102352.97;;;9.09;76.08
76260;BME280;65076;52.362;6.588;2023-05-24T02:23:48;102356.94;;;8.89;77.37
76260;BME280;65076;52.362;6.588;2023-05-24T02:26:16;102352.25;;;8.99;78.03
76260;BME280;65076;52.362;6.588;2023-05-24T02:28:45;102353.59;;;8.72;78.09
76260;BME280;65076;52.362;6.588;2023-05-24T02:31:14;102350.78;;;9.29;77.60
76260;BME280;65076;52.362;6.588;2023-05-24T02:33:45;102355.13;;;9.84;75.90
76260;BME280;65076;52.362;6.588;2023-05-24T02:36:13;102353.25;;;9.86;75.09
76260;BME280;65076;52.362;6.588;2023-05-24T02:38:41;102354.78;;;9.56;74.57
76260;BME280;65076;52.362;6.588;2023-05-24T02:41:09;102346.94;;;10.28;72.49
76260;BME280;65076;52.362;6.588;2023-05-24T02:43:43;102356.28;;;10.12;72.77
76260;BME280;65076;52.362;6.588;2023-05-24T02:46:12;102351.63;;;9.78;72.93
76260;BME280;65076;52.362;6.588;2023-05-24T02:48:40;102352.06;;;9.10;76.21
76260;BME280;65076;52.362;6.588;2023-05-24T02:51:12;102359.13;;;9.17;77.32
76260;BME280;65076;52.362;6.588;2023-05-24T02:53:40;102353.38;;;9.35;74.74
76260;BME280;65076;52.362;6.588;2023-05-24T02:56:09;102358.59;;;8.95;77.34
76260;BME280;65076;52.362;6.588;2023-05-24T02:58:36;102356.50;;;9.58;75.83
76260;BME280;65076;52.362;6.588;2023-05-24T03:01:06;102353.50;;;9.73;73.75
76260;BME280;65076;52.362;6.588;2023-05-24T03:03:34;102355.31;;;10.17;72.20
76260;BME280;65076;52.362;6.588;2023-05-24T03:06:03;102351.69;;;10.15;71.65
76260;BME280;65076;52.362;6.588;2023-05-24T03:08:33;102347.75;;;10.32;71.04
76260;BME280;65076;52.362;6.588;2023-05-24T03:11:02;102358.06;;;10.13;71.42
76260;BME280;65076;52.362;6.588;2023-05-24T03:13:30;102343.00;;;10.01;71.13
76260;BME280;65076;52.362;6.588;2023-05-24T03:15:58;102356.88;;;9.40;73.79
76260;BME280;65076;52.362;6.588;2023-05-24T03:18:26;102349.88;;;9.30;75.10
76260;BME280;65076;52.362;6.588;2023-05-24T03:20:57;102346.81;;;9.01;76.92
76260;BME280;65076;52.362;6.588;2023-05-24T03:23:24;102358.50;;;9.01;76.57
76260;BME280;65076;52.362;6.588;2023-05-24T03:25:54;102344.28;;;8.91;77.50
76260;BME280;65076;52.362;6.588;2023-05-24T03:28:22;102344.38;;;8.85;77.82
76260;BME280;65076;52.362;6.588;2023-05-24T03:30:50;102347.41;;;8.64;78.29
76260;BME280;65076;52.362;6.588;2023-05-24T03:33:18;102354.53;;;8.70;78.64
76260;BME280;65076;52.362;6.588;2023-05-24T03:35:46;102347.75;;;8.98;77.83
76260;BME280;65076;52.362;6.588;2023-05-24T03:38:14;102347.75;;;9.00;78.28
76260;BME280;65076;52.362;6.588;2023-05-24T03:40:42;102347.94;;;9.83;74.87
76260;BME280;65076;52.362;6.588;2023-05-24T03:43:11;102364.63;;;10.01;73.41
76260;BME280;65076;52.362;6.588;2023-05-24T03:45:39;102356.97;;;10.25;71.89
76260;BME280;65076;52.362;6.588;2023-05-24T03:48:07;102360.81;;;10.11;71.60
76260;BME280;65076;52.362;6.588;2023-05-24T03:50:35;102358.97;;;9.72;73.11
76260;BME280;65076;52.362;6.588;2023-05-24T03:53:03;102352.78;;;10.08;72.61
76260;BME280;65076;52.362;6.588;2023-05-24T03:55:31;102351.31;;;10.34;71.52
76260;BME280;65076;52.362;6.588;2023-05-24T03:57:59;102356.19;;;10.18;71.69
76260;BME280;65076;52.362;6.588;2023-05-24T04:00:29;102352.63;;;10.54;71.25
76260;BME280;65076;52.362;6.588;2023-05-24T04:02:57;102355.34;;;10.54;70.37
76260;BME280;65076;52.362;6.588;2023-05-24T04:05:27;102349.38;;;10.40;70.52
76260;BME280;65076;52.362;6.588;2023-05-24T04:07:55;102351.59;;;10.60;70.43
76260;BME280;65076;52.362;6.588;2023-05-24T04:10:23;102363.00;;;9.94;71.76
76260;BME280;65076;52.362;6.588;2023-05-24T04:12:51;102357.66;;;9.91;73.24
76260;BME280;65076;52.362;6.588;2023-05-24T04:15:19;102358.56;;;10.32;72.92
76260;BME280;65076;52.362;6.588;2023-05-24T04:17:49;102365.41;;;10.48;71.62
76260;BME280;65076;52.362;6.588;2023-05-24T04:20:21;102356.63;;;10.38;72.44
76260;BME280;65076;52.362;6.588;2023-05-24T04:22:51;102363.69;;;10.04;73.52
76260;BME280;65076;52.362;6.588;2023-05-24T04:25:21;102361.38;;;10.29;73.43
76260;BME280;65076;52.362;6.588;2023-05-24T04:27:49;102358.06;;;10.90;71.33
76260;BME280;65076;52.362;6.588;2023-05-24T04:30:17;102353.38;;;10.98;70.95
76260;BME280;65076;52.362;6.588;2023-05-24T04:32:46;102362.16;;;10.71;72.88
76260;BME280;65076;52.362;6.588;2023-05-24T04:35:17;102353.84;;;10.78;73.10
76260;BME280;65076;52.362;6.588;2023-05-24T04:37:45;102349.72;;;10.99;71.37
76260;BME280;65076;52.362;6.588;2023-05-24T04:40:14;102357.03;;;10.95;70.94
76260;BME280;65076;52.362;6.588;2023-05-24T04:42:46;102359.13;;;11.20;70.79
76260;BME280;65076;52.362;6.588;2023-05-24T04:45:14;102353.91;;;12.08;68.12
76260;BME280;65076;52.362;6.588;2023-05-24T04:47:42;102350.34;;;12.06;67.97
76260;BME280;65076;52.362;6.588;2023-05-24T04:50:12;102350.31;;;12.07;67.58
76260;BME280;65076;52.362;6.588;2023-05-24T04:52:39;102339.97;;;12.48;65.72
76260;BME280;65076;52.362;6.588;2023-05-24T04:55:08;102352.19;;;12.04;65.56
76260;BME280;65076;52.362;6.588;2023-05-24T04:57:36;102347.72;;;11.72;68.16
76260;BME280;65076;52.362;6.588;2023-05-24T05:00:06;102349.72;;;12.25;66.59
76260;BME280;65076;52.362;6.588;2023-05-24T05:02:35;102356.00;;;12.27;67.02
76260;BME280;65076;52.362;6.588;2023-05-24T05:05:04;102360.19;;;11.79;67.20
76260;BME280;65076;52.362;6.588;2023-05-24T05:07:35;102350.81;;;12.49;66.90
76260;BME280;65076;52.362;6.588;2023-05-24T05:10:04;102355.50;;;11.19;70.39
76260;BME280;65076;52.362;6.588;2023-05-24T05:12:33;102346.16;;;12.53;67.57
76260;BME280;65076;52.362;6.588;2023-05-24T05:15:01;102349.69;;;11.98;69.04
76260;BME280;65076;52.362;6.588;2023-05-24T05:17:29;102340.97;;;13.26;65.83
76260;BME280;65076;52.362;6.588;2023-05-24T05:19:57;102345.59;;;12.42;67.82
76260;BME280;65076;52.362;6.588;2023-05-24T05:22:25;102349.59;;;13.63;65.20
76260;BME280;65076;52.362;6.588;2023-05-24T05:24:58;102353.50;;;13.30;64.22
76260;BME280;65076;52.362;6.588;2023-05-24T05:27:26;102359.63;;;13.10;64.55
76260;BME280;65076;52.362;6.588;2023-05-24T05:29:56;102374.81;;;12.61;66.44
76260;BME280;65076;52.362;6.588;2023-05-24T05:32:23;102372.09;;;13.17;65.58
76260;BME280;65076;52.362;6.588;2023-05-24T05:34:51;102365.88;;;13.13;64.44
76260;BME280;65076;52.362;6.588;2023-05-24T05:37:20;102367.22;;;13.27;64.51
76260;BME280;65076;52.362;6.588;2023-05-24T05:39:48;102372.88;;;13.21;65.09
76260;BME280;65076;52.362;6.588;2023-05-24T05:42:17;102370.53;;;12.82;66.50
76260;BME280;65076;52.362;6.588;2023-05-24T05:44:45;102374.47;;;13.00;65.85
76260;BME280;65076;52.362;6.588;2023-05-24T05:47:13;102377.50;;;12.91;66.02
76260;BME280;65076;52.362;6.588;2023-05-24T05:49:41;102376.03;;;12.81;67.51
76260;BME280;65076;52.362;6.588;2023-05-24T05:52:09;102384.16;;;12.53;67.20
76260;BME280;65076;52.362;6.588;2023-05-24T05:54:37;102368.13;;;13.27;67.05
76260;BME280;65076;52.362;6.588;2023-05-24T05:57:05;102372.16;;;13.40;66.19
76260;BME280;65076;52.362;6.588;2023-05-24T05:59:37;102380.78;;;13.53;65.48
76260;BME280;65076;52.362;6.588;2023-05-24T06:02:05;102385.69;;;12.89;67.68
76260;BME280;65076;52.362;6.588;2023-05-24T06:04:34;102388.94;;;13.00;68.17
76260;BME280;65076;52.362;6.588;2023-05-24T06:07:02;102389.88;;;13.52;65.28
76260;BME280;65076;52.362;6.588;2023-05-24T06:09:31;102385.53;;;13.71;65.25
76260;BME280;65076;52.362;6.588;2023-05-24T06:11:59;102394.00;;;13.64;65.37
76260;BME280;65076;52.362;6.588;2023-05-24T06:14:27;102380.91;;;13.50;65.04
76260;BME280;65076;52.362;6.588;2023-05-24T06:16:57;102380.63;;;14.06;64.13
76260;BME280;65076;52.362;6.588;2023-05-24T06:19:25;102380.66;;;14.52;63.04
76260;BME280;65076;52.362;6.588;2023-05-24T06:21:53;102383.63;;;14.23;64.75
76260;BME280;65076;52.362;6.588;2023-05-24T06:24:21;102387.03;;;14.51;63.08
76260;BME280;65076;52.362;6.588;2023-05-24T06:26:51;102390.59;;;14.07;64.55
76260;BME280;65076;52.362;6.588;2023-05-24T06:29:19;102384.25;;;14.06;63.81
76260;BME280;65076;52.362;6.588;2023-05-24T06:31:48;102387.88;;;14.07;63.67
76260;BME280;65076;52.362;6.588;2023-05-24T06:34:18;102384.41;;;14.25;63.16
76260;BME280;65076;52.362;6.588;2023-05-24T06:36:47;102393.88;;;13.91;64.09
76260;BME280;65076;52.362;6.588;2023-05-24T06:39:17;102390.53;;;13.83;64.44
76260;BME280;65076;52.362;6.588;2023-05-24T06:41:45;102395.75;;;13.89;63.62
76260;BME280;65076;52.362;6.588;2023-05-24T06:44:16;102389.91;;;14.48;62.19
76260;BME280;65076;52.362;6.588;2023-05-24T06:46:45;102388.63;;;14.10;63.89
76260;BME280;65076;52.362;6.588;2023-05-24T06:49:13;102377.75;;;14.57;63.45
76260;BME280;65076;52.362;6.588;2023-05-24T06:51:43;102375.59;;;15.28;61.41
76260;BME280;65076;52.362;6.588;2023-05-24T06:54:14;102380.19;;;15.70;59.94
76260;BME280;65076;52.362;6.588;2023-05-24T06:56:41;102385.03;;;15.63;59.11
76260;BME280;65076;52.362;6.588;2023-05-24T06:59:09;102382.41;;;16.01;57.31
76260;BME280;65076;52.362;6.588;2023-05-24T07:01:38;102388.19;;;16.32;56.38
76260;BME280;65076;52.362;6.588;2023-05-24T07:04:08;102381.22;;;16.64;55.82
76260;BME280;65076;52.362;6.588;2023-05-24T07:06:36;102376.97;;;16.38;55.17
76260;BME280;65076;52.362;6.588;2023-05-24T07:09:06;102376.13;;;17.46;53.43
76260;BME280;65076;52.362;6.588;2023-05-24T07:11:35;102383.53;;;17.26;51.88
76260;BME280;65076;52.362;6.588;2023-05-24T07:14:03;102388.94;;;16.92;53.13
76260;BME280;65076;52.362;6.588;2023-05-24T07:16:33;102390.28;;;16.65;53.87
76260;BME280;65076;52.362;6.588;2023-05-24T07:19:01;102403.63;;;15.94;56.23
76260;BME280;65076;52.362;6.588;2023-05-24T07:21:30;102398.41;;;16.08;55.85
76260;BME280;65076;52.362;6.588;2023-05-24T07:23:58;102390.94;;;16.32;55.01
76260;BME280;65076;52.362;6.588;2023-05-24T07:26:27;102395.06;;;16.41;55.44
76260;BME280;65076;52.362;6.588;2023-05-24T07:28:55;102401.41;;;16.41;54.73
76260;BME280;65076;52.362;6.588;2023-05-24T07:31:23;102400.22;;;16.28;55.46
76260;BME280;65076;52.362;6.588;2023-05-24T07:33:52;102397.00;;;16.00;55.21
76260;BME280;65076;52.362;6.588;2023-05-24T07:36:20;102395.41;;;16.33;55.19
76260;BME280;65076;52.362;6.588;2023-05-24T07:38:48;102392.16;;;16.64;54.57
76260;BME280;65076;52.362;6.588;2023-05-24T07:41:16;102387.00;;;17.47;52.64
76260;BME280;65076;52.362;6.588;2023-05-24T07:43:46;102387.06;;;17.80;49.91
76260;BME280;65076;52.362;6.588;2023-05-24T07:46:15;102393.34;;;17.30;50.57
76260;BME280;65076;52.362;6.588;2023-05-24T07:48:43;102383.84;;;17.20;50.28
76260;BME280;65076;52.362;6.588;2023-05-24T07:51:19;102383.75;;;18.08;49.81
76260;BME280;65076;52.362;6.588;2023-05-24T07:53:48;102386.78;;;18.19;48.27
76260;BME280;65076;52.362;6.588;2023-05-24T07:56:15;102384.34;;;18.46;47.94
76260;BME280;65076;52.362;6.588;2023-05-24T07:58:46;102378.91;;;18.77;46.52
76260;BME280;65076;52.362;6.588;2023-05-24T08:01:17;102375.19;;;19.10;45.93
76260;BME280;65076;52.362;6.588;2023-05-24T08:03:45;102381.56;;;18.63;46.62
76260;BME280;65076;52.362;6.588;2023-05-24T08:06:14;102383.31;;;18.64;46.17
76260;BME280;65076;52.362;6.588;2023-05-24T08:08:42;102383.25;;;18.81;45.50
76260;BME280;65076;52.362;6.588;2023-05-24T08:11:10;102387.06;;;18.30;47.38
76260;BME280;65076;52.362;6.588;2023-05-24T08:13:38;102383.72;;;18.41;45.21
76260;BME280;65076;52.362;6.588;2023-05-24T08:16:08;102377.06;;;18.78;45.10
76260;BME280;65076;52.362;6.588;2023-05-24T08:18:36;102385.75;;;19.16;43.91
76260;BME280;65076;52.362;6.588;2023-05-24T08:21:04;102375.88;;;18.50;45.68
76260;BME280;65076;52.362;6.588;2023-05-24T08:23:33;102379.47;;;18.35;45.84
76260;BME280;65076;52.362;6.588;2023-05-24T08:26:01;102383.75;;;19.03;44.49
76260;BME280;65076;52.362;6.588;2023-05-24T08:28:29;102384.81;;;19.01;43.69
76260;BME280;65076;52.362;6.588;2023-05-24T08:30:58;102382.25;;;19.43;44.18
76260;BME280;65076;52.362;6.588;2023-05-24T08:33:27;102380.72;;;20.83;42.29
76260;BME280;65076;52.362;6.588;2023-05-24T08:35:55;102377.06;;;20.82;41.52
76260;BME280;65076;52.362;6.588;2023-05-24T08:38:23;102379.53;;;21.13;41.19
76260;BME280;65076;52.362;6.588;2023-05-24T08:40:51;102371.88;;;20.78;40.06
76260;BME280;65076;52.362;6.588;2023-05-24T08:43:20;102384.94;;;21.15;39.60
76260;BME280;65076;52.362;6.588;2023-05-24T08:45:50;102382.72;;;20.38;41.19
76260;BME280;65076;52.362;6.588;2023-05-24T08:48:21;102380.66;;;20.56;40.05
76260;BME280;65076;52.362;6.588;2023-05-24T08:50:53;102379.75;;;20.69;39.98
76260;BME280;65076;52.362;6.588;2023-05-24T08:53:23;102379.47;;;19.59;42.81
76260;BME280;65076;52.362;6.588;2023-05-24T08:55:54;102377.97;;;20.83;40.46
76260;BME280;65076;52.362;6.588;2023-05-24T08:58:23;102375.41;;;19.95;41.62
76260;BME280;65076;52.362;6.588;2023-05-24T09:00:51;102377.59;;;19.30;43.46
76260;BME280;65076;52.362;6.588;2023-05-24T09:03:20;102376.50;;;19.02;43.08
76260;BME280;65076;52.362;6.588;2023-05-24T09:05:52;102383.88;;;18.71;44.55
76260;BME280;65076;52.362;6.588;2023-05-24T09:08:21;102379.47;;;18.68;44.88
76260;BME280;65076;52.362;6.588;2023-05-24T09:10:50;102377.44;;;18.06;45.90
76260;BME280;65076;52.362;6.588;2023-05-24T09:13:21;102375.78;;;18.52;45.67
76260;BME280;65076;52.362;6.588;2023-05-24T09:15:50;102380.78;;;18.44;46.16
76260;BME280;65076;52.362;6.588;2023-05-24T09:18:20;102382.41;;;17.82;47.27
76260;BME280;65076;52.362;6.588;2023-05-24T09:20:48;102382.81;;;17.57;46.04
76260;BME280;65076;52.362;6.588;2023-05-24T09:23:20;102390.00;;;17.60;45.87
76260;BME280;65076;52.362;6.588;2023-05-24T09:25:49;102391.03;;;17.57;46.96
76260;BME280;65076;52.362;6.588;2023-05-24T09:28:17;102391.03;;;17.57;45.76
76260;BME280;65076;52.362;6.588;2023-05-24T09:30:57;102376.25;;;17.08;47.26
76260;BME280;65076;52.362;6.588;2023-05-24T09:33:33;102382.72;;;17.24;46.64
76260;BME280;65076;52.362;6.588;2023-05-24T09:36:04;102385.22;;;17.81;47.10
76260;BME280;65076;52.362;6.588;2023-05-24T09:38:34;102389.66;;;17.31;47.64
76260;BME280;65076;52.362;6.588;2023-05-24T09:41:04;102387.25;;;17.77;47.05
76260;BME280;65076;52.362;6.588;2023-05-24T09:43:46;102387.66;;;17.69;46.89
76260;BME280;65076;52.362;6.588;2023-05-24T09:46:16;102388.03;;;17.45;47.37
76260;BME280;65076;52.362;6.588;2023-05-24T09:48:55;102385.72;;;17.37;47.89
76260;BME280;65076;52.362;6.588;2023-05-24T09:51:24;102381.28;;;17.52;47.61
76260;BME280;65076;52.362;6.588;2023-05-24T09:53:56;102383.63;;;17.94;45.67
76260;BME280;65076;52.362;6.588;2023-05-24T09:56:27;102385.72;;;17.71;44.73
76260;BME280;65076;52.362;6.588;2023-05-24T09:58:56;102375.09;;;17.65;44.04
76260;BME280;65076;52.362;6.588;2023-05-24T10:01:24;102372.84;;;17.73;44.31
76260;BME280;65076;52.362;6.588;2023-05-24T10:03:54;102381.00;;;18.08;42.91
76260;BME280;65076;52.362;6.588;2023-05-24T10:06:24;102375.56;;;17.91;42.91
76260;BME280;65076;52.362;6.588;2023-05-24T10:08:54;102372.81;;;17.39;43.86
76260;BME280;65076;52.362;6.588;2023-05-24T10:11:24;102376.41;;;18.08;43.28
76260;BME280;65076;52.362;6.588;2023-05-24T10:13:53;102381.72;;;17.61;44.23
76260;BME280;65076;52.362;6.588;2023-05-24T10:16:22;102374.78;;;17.71;44.56
76260;BME280;65076;52.362;6.588;2023-05-24T10:18:50;102379.03;;;17.25;44.69
76260;BME280;65076;52.362;6.588;2023-05-24T10:21:21;102374.13;;;17.32;44.54
76260;BME280;65076;52.362;6.588;2023-05-24T10:23:56;102380.00;;;17.42;44.18
76260;BME280;65076;52.362;6.588;2023-05-24T10:26:28;102379.84;;;17.79;44.83
76260;BME280;65076;52.362;6.588;2023-05-24T10:29:03;102376.03;;;18.32;44.69
76260;BME280;65076;52.362;6.588;2023-05-24T10:31:39;102379.03;;;18.43;45.12
76260;BME280;65076;52.362;6.588;2023-05-24T10:34:10;102385.44;;;18.10;45.00
76260;BME280;65076;52.362;6.588;2023-05-24T10:36:39;102382.66;;;17.77;44.34
76260;BME280;65076;52.362;6.588;2023-05-24T10:39:09;102393.47;;;17.27;44.71
76260;BME280;65076;52.362;6.588;2023-05-24T10:41:40;102392.22;;;17.86;44.14
76260;BME280;65076;52.362;6.588;2023-05-24T10:44:12;102393.44;;;17.81;44.73
76260;BME280;65076;52.362;6.588;2023-05-24T10:47:19;102397.00;;;17.65;45.05
76260;BME280;65076;52.362;6.588;2023-05-24T10:49:48;102392.72;;;17.60;46.33
76260;BME280;65076;52.362;6.588;2023-05-24T10:52:18;102391.78;;;17.61;45.05
76260;BME280;65076;52.362;6.588;2023-05-24T10:55:03;102390.50;;;17.15;45.90
76260;BME280;65076;52.362;6.588;2023-05-24T10:57:34;102387.66;;;16.99;47.09
76260;BME280;65076;52.362;6.588;2023-05-24T11:00:31;102379.81;;;17.45;48.20
76260;BME280;65076;52.362;6.588;2023-05-24T11:03:04;102386.31;;;17.08;47.05
76260;BME280;65076;52.362;6.588;2023-05-24T11:05:48;102384.53;;;17.77;45.23
76260;BME280;65076;52.362;6.588;2023-05-24T11:08:23;102380.56;;;17.83;45.18
76260;BME280;65076;52.362;6.588;2023-05-24T11:11:09;102388.84;;;17.81;44.70
76260;BME280;65076;52.362;6.588;2023-05-24T11:13:45;102387.25;;;17.77;45.33
76260;BME280;65076;52.362;6.588;2023-05-24T11:16:32;102382.47;;;17.98;44.34
76260;BME280;65076;52.362;6.588;2023-05-24T11:19:18;102385.59;;;18.07;44.63
76260;BME280;65076;52.362;6.588;2023-05-24T11:21:49;102382.41;;;17.48;45.60
76260;BME280;65076;52.362;6.588;2023-05-24T11:24:19;102389.75;;;17.47;46.31
76260;BME280;65076;52.362;6.588;2023-05-24T11:30:39;102387.88;;;17.30;45.15
76260;BME280;65076;52.362;6.588;2023-05-24T11:33:15;102385.28;;;17.27;45.02
76260;BME280;65076;52.362;6.588;2023-05-24T11:35:45;102381.13;;;17.38;44.52
76260;BME280;65076;52.362;6.588;2023-05-24T11:38:15;102382.19;;;17.52;44.99
76260;BME280;65076;52.362;6.588;2023-05-24T11:40:50;102390.81;;;17.62;44.62
76260;BME280;65076;52.362;6.588;2023-05-24T11:43:20;102381.97;;;17.74;44.58
76260;BME280;65076;52.362;6.588;2023-05-24T11:45:49;102382.88;;;17.56;44.87
76260;BME280;65076;52.362;6.588;2023-05-24T11:48:22;102388.94;;;16.92;45.49
76260;BME280;65076;52.362;6.588;2023-05-24T11:50:52;102395.75;;;16.83;46.92
76260;BME280;65076;52.362;6.588;2023-05-24T11:53:21;102397.75;;;16.80;46.75
76260;BME280;65076;52.362;6.588;2023-05-24T11:55:51;102394.94;;;16.81;47.46
76260;BME280;65076;52.362;6.588;2023-05-24T11:58:21;102395.38;;;16.72;47.54
76260;BME280;65076;52.362;6.588;2023-05-24T12:00:51;102393.53;;;16.73;46.85
76260;BME280;65076;52.362;6.588;2023-05-24T12:03:19;102389.06;;;17.25;46.38
76260;BME280;65076;52.362;6.588;2023-05-24T12:05:48;102393.03;;;17.54;46.26
76260;BME280;65076;52.362;6.588;2023-05-24T12:08:19;102392.81;;;17.58;45.89
76260;BME280;65076;52.362;6.588;2023-05-24T12:10:47;102388.84;;;17.47;45.64
76260;BME280;65076;52.362;6.588;2023-05-24T12:13:19;102388.88;;;17.64;45.58
76260;BME280;65076;52.362;6.588;2023-05-24T12:15:51;102384.59;;;17.93;44.36
76260;BME280;65076;52.362;6.588;2023-05-24T12:18:23;102377.84;;;18.15;44.06
76260;BME280;65076;52.362;6.588;2023-05-24T12:20:52;102378.00;;;18.12;43.90
76260;BME280;65076;52.362;6.588;2023-05-24T12:23:22;102386.00;;;18.33;43.98
76260;BME280;65076;52.362;6.588;2023-05-24T12:25:57;102377.63;;;18.36;43.83
76260;BME280;65076;52.362;6.588;2023-05-24T12:28:26;102368.84;;;18.78;42.28
76260;BME280;65076;52.362;6.588;2023-05-24T12:30:56;102366.81;;;19.11;41.83
76260;BME280;65076;52.362;6.588;2023-05-24T12:33:24;102368.94;;;19.22;40.96
76260;BME280;65076;52.362;6.588;2023-05-24T12:35:53;102367.78;;;19.26;41.03
76260;BME280;65076;52.362;6.588;2023-05-24T12:38:22;102376.56;;;19.17;42.20
76260;BME280;65076;52.362;6.588;2023-05-24T12:40:51;102368.28;;;20.06;40.98
76260;BME280;65076;52.362;6.588;2023-05-24T12:43:38;102361.59;;;20.94;39.01
76260;BME280;65076;52.362;6.588;2023-05-24T12:46:08;102355.78;;;21.90;37.94
76260;BME280;65076;52.362;6.588;2023-05-24T12:48:36;102351.38;;;22.25;37.17
76260;BME280;65076;52.362;6.588;2023-05-24T12:51:04;102350.50;;;22.37;35.83
76260;BME280;65076;52.362;6.588;2023-05-24T12:53:34;102358.44;;;22.91;34.27
76260;BME280;65076;52.362;6.588;2023-05-24T12:56:02;102345.56;;;22.66;34.62
76260;BME280;65076;52.362;6.588;2023-05-24T12:58:30;102349.78;;;23.19;32.97
76260;BME280;65076;52.362;6.588;2023-05-24T13:00:58;102350.19;;;22.78;35.48
76260;BME280;65076;52.362;6.588;2023-05-24T13:03:27;102354.16;;;22.00;36.00
76260;BME280;65076;52.362;6.588;2023-05-24T13:05:56;102358.13;;;21.31;36.48
76260;BME280;65076;52.362;6.588;2023-05-24T13:08:25;102352.47;;;21.60;37.03
76260;BME280;65076;52.362;6.588;2023-05-24T13:10:54;102357.41;;;21.15;38.28